GMTT/TNG METAR and TAF weather

Enter ICAO airport designator
Station Type Date Time Source
GMTT METAR 2023/02/06 20:00 UTC NOAA

GMTT 062000Z 08004KT CAVOK 11/11 Q1019 NOSIG


Station Type Date Time Source
GMTT Decoded METAR 2023/02/06 20:00 UTC NOAA

Tanger Aerodrome , Morocco (GMTT) 35-44N 005-54W 21M
Feb 06, 2023 - 03:00 PM EST / 2023.02.06 2000 UTC
Wind: from the E (080 degrees) at 5 MPH (4 KT):0
Visibility: greater than 7 mile(s):0
Temperature: 51 F (11 C)
Dew Point: 51 F (11 C)
Relative Humidity: 100%
Pressure (altimeter): 30.09 in. Hg (1019 hPa)
ob: GMTT 062000Z 08004KT CAVOK 11/11 Q1019 NOSIG
cycle: 20

Station Type Date Time Source
GMTT TAF 2023/02/06 18:54 UTC NOAA

TAF TAF GMTT 061700Z 0618/0724 34009KT 9999 FEW010
BECMG 0619/0623 09012KT PROB30
TEMPO 0706/0724 4000 RA SCT008 BKN013 PROB40
TEMPO 0707/0724 2000 SHRA SCT008 SCT020TCU BKN023

Example: see airport list